METAR Data
IDs: Format: Raw Decoded Include TAF

Data at: 2233 UTC 30 Jun 2022

METAR for:KARW (Beaufort Cnty, GA, US)
Text:KARW 302215Z AUTO 11007G14KT 10SM BKN021 BKN027 27/22 A3012 RMK AO2 LTG DSNT SE
Temperature: 27.0°C ( 81°F)
Dewpoint: 22.0°C ( 72°F) [RH = 74%]
Pressure (altimeter):30.12 inches Hg (1020.1 mb)
Winds:from the ESE (110 degrees) at 8 MPH (7 knots; 3.6 m/s) gusting to 16 MPH (14 knots; 7.2 m/s)
Visibility:10 or more sm (16+ km)
Ceiling:2100 feet AGL
Clouds: broken clouds at 2100 feet AGL, broken clouds at 2700 feet AGL
QC Flag:automated observation with no human augmentation

TAF for:KARW (Beaufort Cnty, GA, US)
Text:No data found